sensor_id;sensor_type;location;lat;lon;timestamp;temperature;humidity
13711;DHT22;6927;51.256;9.410;2023-12-29T00:01:30;7.50;99.90
13711;DHT22;6927;51.256;9.410;2023-12-29T00:03:56;7.50;99.90
13711;DHT22;6927;51.256;9.410;2023-12-29T00:06:21;7.60;99.90
13711;DHT22;6927;51.256;9.410;2023-12-29T00:08:47;7.60;99.90
13711;DHT22;6927;51.256;9.410;2023-12-29T00:11:19;7.60;99.90
13711;DHT22;6927;51.256;9.410;2023-12-29T00:13:46;7.50;99.90
13711;DHT22;6927;51.256;9.410;2023-12-29T00:16:11;7.50;99.90
13711;DHT22;6927;51.256;9.410;2023-12-29T00:18:37;7.50;99.90
13711;DHT22;6927;51.256;9.410;2023-12-29T00:21:03;7.50;99.90
13711;DHT22;6927;51.256;9.410;2023-12-29T00:23:29;7.40;99.90
13711;DHT22;6927;51.256;9.410;2023-12-29T00:25:55;7.40;99.90
13711;DHT22;6927;51.256;9.410;2023-12-29T00:28:20;7.40;99.90
13711;DHT22;6927;51.256;9.410;2023-12-29T00:30:46;7.30;99.90
13711;DHT22;6927;51.256;9.410;2023-12-29T00:33:11;7.30;99.90
13711;DHT22;6927;51.256;9.410;2023-12-29T00:35:37;7.30;99.90
13711;DHT22;6927;51.256;9.410;2023-12-29T00:38:04;7.30;99.90
13711;DHT22;6927;51.256;9.410;2023-12-29T00:40:30;7.20;99.90
13711;DHT22;6927;51.256;9.410;2023-12-29T00:42:56;7.20;99.90
13711;DHT22;6927;51.256;9.410;2023-12-29T00:45:21;7.20;99.90
13711;DHT22;6927;51.256;9.410;2023-12-29T00:47:47;7.20;99.90
13711;DHT22;6927;51.256;9.410;2023-12-29T00:50:14;7.30;99.90
13711;DHT22;6927;51.256;9.410;2023-12-29T00:52:39;7.30;99.90
13711;DHT22;6927;51.256;9.410;2023-12-29T00:55:05;7.30;99.90
13711;DHT22;6927;51.256;9.410;2023-12-29T00:57:31;7.30;99.90
13711;DHT22;6927;51.256;9.410;2023-12-29T00:59:56;7.40;99.90
13711;DHT22;6927;51.256;9.410;2023-12-29T01:02:22;7.40;99.90
13711;DHT22;6927;51.256;9.410;2023-12-29T01:04:48;7.40;99.90
13711;DHT22;6927;51.256;9.410;2023-12-29T01:07:13;7.50;99.90
13711;DHT22;6927;51.256;9.410;2023-12-29T01:09:39;7.50;99.90
13711;DHT22;6927;51.256;9.410;2023-12-29T01:12:08;7.60;99.90
13711;DHT22;6927;51.256;9.410;2023-12-29T01:14:34;7.60;99.90
13711;DHT22;6927;51.256;9.410;2023-12-29T01:16:59;7.70;99.90
13711;DHT22;6927;51.256;9.410;2023-12-29T01:19:25;7.70;99.90
13711;DHT22;6927;51.256;9.410;2023-12-29T01:21:50;7.70;99.90
13711;DHT22;6927;51.256;9.410;2023-12-29T01:24:16;7.70;99.90
13711;DHT22;6927;51.256;9.410;2023-12-29T01:26:41;7.70;99.90
13711;DHT22;6927;51.256;9.410;2023-12-29T01:29:07;7.70;99.90
13711;DHT22;6927;51.256;9.410;2023-12-29T01:31:32;7.70;99.90
13711;DHT22;6927;51.256;9.410;2023-12-29T01:33:59;7.80;99.90
13711;DHT22;6927;51.256;9.410;2023-12-29T01:36:24;7.80;99.90
13711;DHT22;6927;51.256;9.410;2023-12-29T01:38:50;7.80;99.90
13711;DHT22;6927;51.256;9.410;2023-12-29T01:41:16;7.90;99.90
13711;DHT22;6927;51.256;9.410;2023-12-29T01:46:25;7.90;99.90
13711;DHT22;6927;51.256;9.410;2023-12-29T01:48:52;7.90;99.90
13711;DHT22;6927;51.256;9.410;2023-12-29T01:51:21;7.90;99.90
13711;DHT22;6927;51.256;9.410;2023-12-29T01:53:49;7.90;99.90
13711;DHT22;6927;51.256;9.410;2023-12-29T01:56:15;8.00;99.90
13711;DHT22;6927;51.256;9.410;2023-12-29T01:58:40;8.00;99.90
13711;DHT22;6927;51.256;9.410;2023-12-29T02:01:07;8.00;99.90
13711;DHT22;6927;51.256;9.410;2023-12-29T02:03:33;8.00;99.90
13711;DHT22;6927;51.256;9.410;2023-12-29T02:05:59;8.00;99.90
13711;DHT22;6927;51.256;9.410;2023-12-29T02:08:25;8.10;99.90
13711;DHT22;6927;51.256;9.410;2023-12-29T02:10:51;8.10;99.90
13711;DHT22;6927;51.256;9.410;2023-12-29T02:13:16;8.10;99.90
13711;DHT22;6927;51.256;9.410;2023-12-29T02:15:42;8.10;99.90
13711;DHT22;6927;51.256;9.410;2023-12-29T02:18:14;8.10;99.90
13711;DHT22;6927;51.256;9.410;2023-12-29T02:20:41;8.10;99.90
13711;DHT22;6927;51.256;9.410;2023-12-29T02:23:07;8.20;99.90
13711;DHT22;6927;51.256;9.410;2023-12-29T02:25:33;8.20;99.90
13711;DHT22;6927;51.256;9.410;2023-12-29T02:28:12;8.20;99.90
13711;DHT22;6927;51.256;9.410;2023-12-29T02:30:48;8.20;99.90
13711;DHT22;6927;51.256;9.410;2023-12-29T02:33:22;8.20;99.90
13711;DHT22;6927;51.256;9.410;2023-12-29T02:35:51;8.20;99.90
13711;DHT22;6927;51.256;9.410;2023-12-29T02:38:18;8.30;99.90
13711;DHT22;6927;51.256;9.410;2023-12-29T02:40:43;8.20;99.90
13711;DHT22;6927;51.256;9.410;2023-12-29T02:43:09;8.20;99.90
13711;DHT22;6927;51.256;9.410;2023-12-29T02:45:35;8.20;99.90
13711;DHT22;6927;51.256;9.410;2023-12-29T02:48:01;8.20;99.90
13711;DHT22;6927;51.256;9.410;2023-12-29T02:50:26;8.10;99.90
13711;DHT22;6927;51.256;9.410;2023-12-29T02:52:52;8.20;99.90
13711;DHT22;6927;51.256;9.410;2023-12-29T02:55:17;8.20;99.90
13711;DHT22;6927;51.256;9.410;2023-12-29T02:57:43;8.20;99.90
13711;DHT22;6927;51.256;9.410;2023-12-29T03:00:09;8.20;99.90
13711;DHT22;6927;51.256;9.410;2023-12-29T03:02:34;8.30;99.90
13711;DHT22;6927;51.256;9.410;2023-12-29T03:05:00;8.30;99.90
13711;DHT22;6927;51.256;9.410;2023-12-29T03:07:25;8.30;99.90
13711;DHT22;6927;51.256;9.410;2023-12-29T03:09:51;8.30;99.90
13711;DHT22;6927;51.256;9.410;2023-12-29T03:12:17;8.30;99.90
13711;DHT22;6927;51.256;9.410;2023-12-29T03:14:44;8.30;99.90
13711;DHT22;6927;51.256;9.410;2023-12-29T03:17:09;8.30;99.90
13711;DHT22;6927;51.256;9.410;2023-12-29T03:19:35;8.30;99.90
13711;DHT22;6927;51.256;9.410;2023-12-29T03:22:01;8.30;99.90
13711;DHT22;6927;51.256;9.410;2023-12-29T03:24:27;8.40;99.90
13711;DHT22;6927;51.256;9.410;2023-12-29T03:26:53;8.40;99.90
13711;DHT22;6927;51.256;9.410;2023-12-29T03:29:19;8.40;99.90
13711;DHT22;6927;51.256;9.410;2023-12-29T03:31:44;8.40;99.90
13711;DHT22;6927;51.256;9.410;2023-12-29T03:34:10;8.40;99.90
13711;DHT22;6927;51.256;9.410;2023-12-29T03:36:35;8.40;99.90
13711;DHT22;6927;51.256;9.410;2023-12-29T03:39:01;8.40;99.90
13711;DHT22;6927;51.256;9.410;2023-12-29T03:41:28;8.40;99.90
13711;DHT22;6927;51.256;9.410;2023-12-29T03:43:53;8.40;99.90
13711;DHT22;6927;51.256;9.410;2023-12-29T03:46:20;8.40;99.90
13711;DHT22;6927;51.256;9.410;2023-12-29T03:48:47;8.50;99.90
13711;DHT22;6927;51.256;9.410;2023-12-29T03:51:13;8.50;99.90
13711;DHT22;6927;51.256;9.410;2023-12-29T03:53:38;8.50;99.90
13711;DHT22;6927;51.256;9.410;2023-12-29T03:56:08;8.50;99.90
13711;DHT22;6927;51.256;9.410;2023-12-29T03:58:34;8.50;99.90
13711;DHT22;6927;51.256;9.410;2023-12-29T04:01:00;8.50;99.90
13711;DHT22;6927;51.256;9.410;2023-12-29T04:03:26;8.50;99.90
13711;DHT22;6927;51.256;9.410;2023-12-29T04:05:52;8.50;99.90
13711;DHT22;6927;51.256;9.410;2023-12-29T04:08:17;8.50;99.90
13711;DHT22;6927;51.256;9.410;2023-12-29T04:10:43;8.40;99.90
13711;DHT22;6927;51.256;9.410;2023-12-29T04:13:09;8.40;99.90
13711;DHT22;6927;51.256;9.410;2023-12-29T04:15:34;8.40;99.90
13711;DHT22;6927;51.256;9.410;2023-12-29T04:18:00;8.40;99.90
13711;DHT22;6927;51.256;9.410;2023-12-29T04:20:25;8.40;99.90
13711;DHT22;6927;51.256;9.410;2023-12-29T04:22:51;8.30;99.90
13711;DHT22;6927;51.256;9.410;2023-12-29T04:25:17;8.20;99.90
13711;DHT22;6927;51.256;9.410;2023-12-29T04:27:43;8.10;99.90
13711;DHT22;6927;51.256;9.410;2023-12-29T04:30:09;8.00;99.90
13711;DHT22;6927;51.256;9.410;2023-12-29T04:32:35;8.00;99.90
13711;DHT22;6927;51.256;9.410;2023-12-29T04:35:00;7.90;99.90
13711;DHT22;6927;51.256;9.410;2023-12-29T04:37:26;7.90;99.90
13711;DHT22;6927;51.256;9.410;2023-12-29T04:39:52;7.90;99.90
13711;DHT22;6927;51.256;9.410;2023-12-29T04:42:17;8.00;99.90
13711;DHT22;6927;51.256;9.410;2023-12-29T04:44:43;8.10;99.90
13711;DHT22;6927;51.256;9.410;2023-12-29T04:47:09;8.00;99.90
13711;DHT22;6927;51.256;9.410;2023-12-29T04:49:35;8.00;99.90
13711;DHT22;6927;51.256;9.410;2023-12-29T04:52:01;8.00;99.90
13711;DHT22;6927;51.256;9.410;2023-12-29T04:54:27;8.10;99.90
13711;DHT22;6927;51.256;9.410;2023-12-29T04:56:52;8.10;99.90
13711;DHT22;6927;51.256;9.410;2023-12-29T04:59:18;8.10;99.90
13711;DHT22;6927;51.256;9.410;2023-12-29T05:01:44;8.10;99.90
13711;DHT22;6927;51.256;9.410;2023-12-29T05:04:09;8.20;99.90
13711;DHT22;6927;51.256;9.410;2023-12-29T05:06:35;8.20;99.90
13711;DHT22;6927;51.256;9.410;2023-12-29T05:09:00;8.20;99.90
13711;DHT22;6927;51.256;9.410;2023-12-29T05:11:26;8.30;99.90
13711;DHT22;6927;51.256;9.410;2023-12-29T05:13:51;8.30;99.90
13711;DHT22;6927;51.256;9.410;2023-12-29T05:16:17;8.30;99.90
13711;DHT22;6927;51.256;9.410;2023-12-29T05:18:43;8.30;99.90
13711;DHT22;6927;51.256;9.410;2023-12-29T05:21:16;8.30;99.90
13711;DHT22;6927;51.256;9.410;2023-12-29T05:23:44;8.30;99.90
13711;DHT22;6927;51.256;9.410;2023-12-29T05:26:09;8.30;99.90
13711;DHT22;6927;51.256;9.410;2023-12-29T05:28:35;8.30;99.90
13711;DHT22;6927;51.256;9.410;2023-12-29T05:31:01;8.30;99.90
13711;DHT22;6927;51.256;9.410;2023-12-29T05:33:29;8.40;99.90
13711;DHT22;6927;51.256;9.410;2023-12-29T05:35:55;8.40;99.90
13711;DHT22;6927;51.256;9.410;2023-12-29T05:38:20;8.40;99.90
13711;DHT22;6927;51.256;9.410;2023-12-29T05:40:46;8.40;99.90
13711;DHT22;6927;51.256;9.410;2023-12-29T05:43:11;8.40;99.90
13711;DHT22;6927;51.256;9.410;2023-12-29T05:45:37;8.40;99.90
13711;DHT22;6927;51.256;9.410;2023-12-29T05:48:02;8.40;99.90
13711;DHT22;6927;51.256;9.410;2023-12-29T05:50:28;8.40;99.90
13711;DHT22;6927;51.256;9.410;2023-12-29T05:52:53;8.40;99.90
13711;DHT22;6927;51.256;9.410;2023-12-29T05:55:19;8.50;99.90
13711;DHT22;6927;51.256;9.410;2023-12-29T05:57:45;8.50;99.90
13711;DHT22;6927;51.256;9.410;2023-12-29T06:00:11;8.50;99.90
13711;DHT22;6927;51.256;9.410;2023-12-29T06:02:40;8.50;99.90
13711;DHT22;6927;51.256;9.410;2023-12-29T06:05:06;8.50;99.90
13711;DHT22;6927;51.256;9.410;2023-12-29T06:07:33;8.50;99.90
13711;DHT22;6927;51.256;9.410;2023-12-29T06:09:58;8.50;99.90
13711;DHT22;6927;51.256;9.410;2023-12-29T06:12:24;8.50;99.90
13711;DHT22;6927;51.256;9.410;2023-12-29T06:14:49;8.50;99.90
13711;DHT22;6927;51.256;9.410;2023-12-29T06:17:15;8.60;99.90
13711;DHT22;6927;51.256;9.410;2023-12-29T06:19:41;8.60;99.90
13711;DHT22;6927;51.256;9.410;2023-12-29T06:22:06;8.60;99.90
13711;DHT22;6927;51.256;9.410;2023-12-29T06:24:39;8.60;99.90
13711;DHT22;6927;51.256;9.410;2023-12-29T06:27:06;8.60;99.90
13711;DHT22;6927;51.256;9.410;2023-12-29T06:29:31;8.60;99.90
13711;DHT22;6927;51.256;9.410;2023-12-29T06:31:57;8.60;99.90
13711;DHT22;6927;51.256;9.410;2023-12-29T06:34:22;8.70;99.90
13711;DHT22;6927;51.256;9.410;2023-12-29T06:36:48;8.70;99.90
13711;DHT22;6927;51.256;9.410;2023-12-29T06:39:13;8.60;99.90
13711;DHT22;6927;51.256;9.410;2023-12-29T06:41:39;8.70;99.90
13711;DHT22;6927;51.256;9.410;2023-12-29T06:44:04;8.60;99.90
13711;DHT22;6927;51.256;9.410;2023-12-29T06:46:30;8.60;99.90
13711;DHT22;6927;51.256;9.410;2023-12-29T06:48:55;8.60;99.90
13711;DHT22;6927;51.256;9.410;2023-12-29T06:51:21;8.60;99.90
13711;DHT22;6927;51.256;9.410;2023-12-29T06:53:49;8.60;99.90
13711;DHT22;6927;51.256;9.410;2023-12-29T06:56:18;8.60;99.90
13711;DHT22;6927;51.256;9.410;2023-12-29T06:58:44;8.70;99.90
13711;DHT22;6927;51.256;9.410;2023-12-29T07:01:10;8.70;99.90
13711;DHT22;6927;51.256;9.410;2023-12-29T07:03:36;8.70;99.90
13711;DHT22;6927;51.256;9.410;2023-12-29T07:06:01;8.70;99.90
13711;DHT22;6927;51.256;9.410;2023-12-29T07:08:27;8.70;99.90
13711;DHT22;6927;51.256;9.410;2023-12-29T07:10:53;8.70;99.90
13711;DHT22;6927;51.256;9.410;2023-12-29T07:13:19;8.70;99.90
13711;DHT22;6927;51.256;9.410;2023-12-29T07:15:47;8.80;99.90
13711;DHT22;6927;51.256;9.410;2023-12-29T07:18:13;8.80;99.90
13711;DHT22;6927;51.256;9.410;2023-12-29T07:20:39;8.80;99.90
13711;DHT22;6927;51.256;9.410;2023-12-29T07:23:04;8.80;99.90
13711;DHT22;6927;51.256;9.410;2023-12-29T07:25:30;8.80;99.90
13711;DHT22;6927;51.256;9.410;2023-12-29T07:27:56;8.80;99.90
13711;DHT22;6927;51.256;9.410;2023-12-29T07:30:22;8.80;99.90
13711;DHT22;6927;51.256;9.410;2023-12-29T07:32:47;8.90;99.90
13711;DHT22;6927;51.256;9.410;2023-12-29T07:35:13;8.90;99.90
13711;DHT22;6927;51.256;9.410;2023-12-29T07:37:46;8.80;99.90
13711;DHT22;6927;51.256;9.410;2023-12-29T07:40:12;8.80;99.90
13711;DHT22;6927;51.256;9.410;2023-12-29T07:42:39;8.80;99.90
13711;DHT22;6927;51.256;9.410;2023-12-29T07:45:05;8.80;99.90
13711;DHT22;6927;51.256;9.410;2023-12-29T07:47:57;8.80;99.90
13711;DHT22;6927;51.256;9.410;2023-12-29T07:50:22;8.80;99.90
13711;DHT22;6927;51.256;9.410;2023-12-29T07:52:48;8.80;99.90
13711;DHT22;6927;51.256;9.410;2023-12-29T07:55:13;8.80;99.90
13711;DHT22;6927;51.256;9.410;2023-12-29T07:57:42;8.80;99.90
13711;DHT22;6927;51.256;9.410;2023-12-29T08:00:09;8.70;99.90
13711;DHT22;6927;51.256;9.410;2023-12-29T08:02:34;8.80;99.90
13711;DHT22;6927;51.256;9.410;2023-12-29T08:05:01;8.80;99.90
13711;DHT22;6927;51.256;9.410;2023-12-29T08:07:27;8.80;99.90
13711;DHT22;6927;51.256;9.410;2023-12-29T08:09:53;8.80;99.90
13711;DHT22;6927;51.256;9.410;2023-12-29T08:12:18;8.80;99.90
13711;DHT22;6927;51.256;9.410;2023-12-29T08:14:44;8.80;99.90
13711;DHT22;6927;51.256;9.410;2023-12-29T08:17:10;8.80;99.90
13711;DHT22;6927;51.256;9.410;2023-12-29T08:19:36;8.80;99.90
13711;DHT22;6927;51.256;9.410;2023-12-29T08:22:03;8.80;99.90
13711;DHT22;6927;51.256;9.410;2023-12-29T08:24:29;8.80;99.90
13711;DHT22;6927;51.256;9.410;2023-12-29T08:26:54;8.90;99.90
13711;DHT22;6927;51.256;9.410;2023-12-29T08:29:20;8.90;99.90
13711;DHT22;6927;51.256;9.410;2023-12-29T08:31:45;9.00;99.90
13711;DHT22;6927;51.256;9.410;2023-12-29T08:34:11;9.00;99.90
13711;DHT22;6927;51.256;9.410;2023-12-29T08:36:37;9.00;99.90
13711;DHT22;6927;51.256;9.410;2023-12-29T08:39:03;9.00;99.90
13711;DHT22;6927;51.256;9.410;2023-12-29T08:41:29;9.00;99.90
13711;DHT22;6927;51.256;9.410;2023-12-29T08:43:57;9.00;99.90
13711;DHT22;6927;51.256;9.410;2023-12-29T08:46:23;9.00;99.90
13711;DHT22;6927;51.256;9.410;2023-12-29T08:48:51;9.00;99.90
13711;DHT22;6927;51.256;9.410;2023-12-29T08:51:16;9.00;99.90
13711;DHT22;6927;51.256;9.410;2023-12-29T08:53:42;9.10;99.90
13711;DHT22;6927;51.256;9.410;2023-12-29T08:56:07;9.00;99.90
13711;DHT22;6927;51.256;9.410;2023-12-29T08:58:33;9.00;99.90
13711;DHT22;6927;51.256;9.410;2023-12-29T09:00:58;9.10;99.90
13711;DHT22;6927;51.256;9.410;2023-12-29T09:03:24;9.10;99.90
13711;DHT22;6927;51.256;9.410;2023-12-29T09:05:49;9.10;99.90
13711;DHT22;6927;51.256;9.410;2023-12-29T09:08:15;9.10;99.90
13711;DHT22;6927;51.256;9.410;2023-12-29T09:10:41;9.10;99.90
13711;DHT22;6927;51.256;9.410;2023-12-29T09:13:07;9.10;99.90
13711;DHT22;6927;51.256;9.410;2023-12-29T09:15:33;9.20;99.90
13711;DHT22;6927;51.256;9.410;2023-12-29T09:17:59;9.20;99.90
13711;DHT22;6927;51.256;9.410;2023-12-29T09:20:25;9.20;99.90
13711;DHT22;6927;51.256;9.410;2023-12-29T09:22:51;9.20;99.90
13711;DHT22;6927;51.256;9.410;2023-12-29T09:25:17;9.20;99.90
13711;DHT22;6927;51.256;9.410;2023-12-29T09:27:42;9.30;99.90
13711;DHT22;6927;51.256;9.410;2023-12-29T09:30:10;9.30;99.90
13711;DHT22;6927;51.256;9.410;2023-12-29T09:32:35;9.30;99.90
13711;DHT22;6927;51.256;9.410;2023-12-29T09:35:01;9.30;99.90
13711;DHT22;6927;51.256;9.410;2023-12-29T09:37:27;9.30;99.90
13711;DHT22;6927;51.256;9.410;2023-12-29T09:39:52;9.30;99.90
13711;DHT22;6927;51.256;9.410;2023-12-29T09:42:20;9.30;99.90
13711;DHT22;6927;51.256;9.410;2023-12-29T09:44:50;9.30;99.90
13711;DHT22;6927;51.256;9.410;2023-12-29T09:47:20;9.30;99.90
13711;DHT22;6927;51.256;9.410;2023-12-29T09:49:48;9.20;99.90
13711;DHT22;6927;51.256;9.410;2023-12-29T09:52:16;8.90;99.90
13711;DHT22;6927;51.256;9.410;2023-12-29T09:54:52;8.80;99.90
13711;DHT22;6927;51.256;9.410;2023-12-29T09:57:21;8.50;99.90
13711;DHT22;6927;51.256;9.410;2023-12-29T09:59:49;8.30;99.90
13711;DHT22;6927;51.256;9.410;2023-12-29T10:02:20;8.20;99.90
13711;DHT22;6927;51.256;9.410;2023-12-29T10:04:50;8.10;99.90
13711;DHT22;6927;51.256;9.410;2023-12-29T10:07:23;8.00;99.90
13711;DHT22;6927;51.256;9.410;2023-12-29T10:09:58;8.00;99.90
13711;DHT22;6927;51.256;9.410;2023-12-29T10:12:28;8.00;99.90
13711;DHT22;6927;51.256;9.410;2023-12-29T10:15:14;8.00;99.90
13711;DHT22;6927;51.256;9.410;2023-12-29T10:23:47;7.90;99.90
13711;DHT22;6927;51.256;9.410;2023-12-29T10:26:11;8.00;99.90
13711;DHT22;6927;51.256;9.410;2023-12-29T10:28:37;7.90;99.90
13711;DHT22;6927;51.256;9.410;2023-12-29T10:31:06;7.90;99.90
13711;DHT22;6927;51.256;9.410;2023-12-29T10:33:31;7.90;99.90
13711;DHT22;6927;51.256;9.410;2023-12-29T10:36:25;7.90;99.90
13711;DHT22;6927;51.256;9.410;2023-12-29T10:46:14;8.00;99.90
13711;DHT22;6927;51.256;9.410;2023-12-29T10:48:42;8.00;99.90
13711;DHT22;6927;51.256;9.410;2023-12-29T10:54:33;7.90;99.90
13711;DHT22;6927;51.256;9.410;2023-12-29T10:57:24;7.90;99.90
13711;DHT22;6927;51.256;9.410;2023-12-29T11:03:31;8.00;99.90
13711;DHT22;6927;51.256;9.410;2023-12-29T11:06:01;8.00;99.90
13711;DHT22;6927;51.256;9.410;2023-12-29T11:08:35;8.00;99.90
13711;DHT22;6927;51.256;9.410;2023-12-29T11:11:01;8.00;99.90
13711;DHT22;6927;51.256;9.410;2023-12-29T11:13:29;8.10;99.90
13711;DHT22;6927;51.256;9.410;2023-12-29T11:15:56;8.00;99.90
13711;DHT22;6927;51.256;9.410;2023-12-29T11:18:21;8.10;99.90
13711;DHT22;6927;51.256;9.410;2023-12-29T11:20:49;8.10;99.90
13711;DHT22;6927;51.256;9.410;2023-12-29T11:23:15;8.20;99.90
13711;DHT22;6927;51.256;9.410;2023-12-29T11:25:44;8.20;99.90
13711;DHT22;6927;51.256;9.410;2023-12-29T11:28:14;8.30;99.90
13711;DHT22;6927;51.256;9.410;2023-12-29T11:30:39;8.30;99.90
13711;DHT22;6927;51.256;9.410;2023-12-29T11:36:16;8.30;99.90
13711;DHT22;6927;51.256;9.410;2023-12-29T11:43:58;8.30;99.90
13711;DHT22;6927;51.256;9.410;2023-12-29T11:48:59;8.30;99.90
13711;DHT22;6927;51.256;9.410;2023-12-29T11:51:34;8.40;99.90
13711;DHT22;6927;51.256;9.410;2023-12-29T11:54:04;8.40;99.90
13711;DHT22;6927;51.256;9.410;2023-12-29T11:56:37;8.50;99.90
13711;DHT22;6927;51.256;9.410;2023-12-29T11:59:14;8.50;99.90
13711;DHT22;6927;51.256;9.410;2023-12-29T12:01:40;8.60;99.90
13711;DHT22;6927;51.256;9.410;2023-12-29T12:07:16;8.70;99.90
13711;DHT22;6927;51.256;9.410;2023-12-29T12:09:43;8.70;99.90
13711;DHT22;6927;51.256;9.410;2023-12-29T12:12:10;8.80;99.90
13711;DHT22;6927;51.256;9.410;2023-12-29T12:14:46;8.80;99.90
13711;DHT22;6927;51.256;9.410;2023-12-29T12:17:16;8.90;99.90
13711;DHT22;6927;51.256;9.410;2023-12-29T12:19:53;9.00;99.90
13711;DHT22;6927;51.256;9.410;2023-12-29T12:22:24;9.10;99.90
13711;DHT22;6927;51.256;9.410;2023-12-29T12:24:55;9.10;99.90
13711;DHT22;6927;51.256;9.410;2023-12-29T12:27:22;9.20;99.90
13711;DHT22;6927;51.256;9.410;2023-12-29T12:29:53;9.30;99.90
13711;DHT22;6927;51.256;9.410;2023-12-29T12:32:20;9.30;99.90
13711;DHT22;6927;51.256;9.410;2023-12-29T12:34:46;9.30;99.90
13711;DHT22;6927;51.256;9.410;2023-12-29T12:37:12;9.40;99.90
13711;DHT22;6927;51.256;9.410;2023-12-29T12:39:39;9.50;99.90
13711;DHT22;6927;51.256;9.410;2023-12-29T12:42:05;9.50;99.90
13711;DHT22;6927;51.256;9.410;2023-12-29T12:44:31;9.50;99.90
13711;DHT22;6927;51.256;9.410;2023-12-29T12:46:59;9.40;99.90
13711;DHT22;6927;51.256;9.410;2023-12-29T12:49:29;9.50;99.90
13711;DHT22;6927;51.256;9.410;2023-12-29T12:51:55;9.50;99.90
13711;DHT22;6927;51.256;9.410;2023-12-29T12:54:21;9.50;99.90
13711;DHT22;6927;51.256;9.410;2023-12-29T12:56:47;9.50;99.90
13711;DHT22;6927;51.256;9.410;2023-12-29T12:59:13;9.50;99.90
13711;DHT22;6927;51.256;9.410;2023-12-29T13:01:40;9.60;99.90
13711;DHT22;6927;51.256;9.410;2023-12-29T13:04:07;9.60;99.90
13711;DHT22;6927;51.256;9.410;2023-12-29T13:06:34;9.60;99.90
13711;DHT22;6927;51.256;9.410;2023-12-29T13:09:00;9.60;99.90
13711;DHT22;6927;51.256;9.410;2023-12-29T13:11:28;9.60;99.90
13711;DHT22;6927;51.256;9.410;2023-12-29T13:13:54;9.50;99.90
13711;DHT22;6927;51.256;9.410;2023-12-29T13:16:29;9.50;99.90
13711;DHT22;6927;51.256;9.410;2023-12-29T13:18:55;9.60;99.90
13711;DHT22;6927;51.256;9.410;2023-12-29T13:21:20;9.60;99.90
13711;DHT22;6927;51.256;9.410;2023-12-29T13:23:47;9.60;99.90
13711;DHT22;6927;51.256;9.410;2023-12-29T13:26:13;9.60;99.90
13711;DHT22;6927;51.256;9.410;2023-12-29T13:28:39;9.60;99.90
13711;DHT22;6927;51.256;9.410;2023-12-29T13:31:08;9.60;99.90
13711;DHT22;6927;51.256;9.410;2023-12-29T13:37:09;9.60;99.90
13711;DHT22;6927;51.256;9.410;2023-12-29T13:39:50;9.50;99.90
13711;DHT22;6927;51.256;9.410;2023-12-29T13:42:17;9.50;99.90
13711;DHT22;6927;51.256;9.410;2023-12-29T13:44:45;9.40;99.90
13711;DHT22;6927;51.256;9.410;2023-12-29T13:47:11;9.40;99.90
13711;DHT22;6927;51.256;9.410;2023-12-29T13:49:37;9.40;99.90
13711;DHT22;6927;51.256;9.410;2023-12-29T13:52:04;9.40;99.90
13711;DHT22;6927;51.256;9.410;2023-12-29T13:54:29;9.40;99.90
13711;DHT22;6927;51.256;9.410;2023-12-29T13:56:55;9.40;99.90
13711;DHT22;6927;51.256;9.410;2023-12-29T13:59:33;9.40;99.90
13711;DHT22;6927;51.256;9.410;2023-12-29T14:02:04;9.50;99.90
13711;DHT22;6927;51.256;9.410;2023-12-29T14:04:40;9.50;99.90
13711;DHT22;6927;51.256;9.410;2023-12-29T14:07:08;9.40;99.90
13711;DHT22;6927;51.256;9.410;2023-12-29T14:09:35;9.50;99.90
13711;DHT22;6927;51.256;9.410;2023-12-29T14:12:00;9.40;99.90
13711;DHT22;6927;51.256;9.410;2023-12-29T14:14:26;9.40;99.90
13711;DHT22;6927;51.256;9.410;2023-12-29T14:16:52;9.40;99.90
13711;DHT22;6927;51.256;9.410;2023-12-29T14:19:18;9.40;99.90
13711;DHT22;6927;51.256;9.410;2023-12-29T14:21:49;9.40;99.90
13711;DHT22;6927;51.256;9.410;2023-12-29T14:24:16;9.50;99.90
13711;DHT22;6927;51.256;9.410;2023-12-29T14:29:17;9.50;99.90
13711;DHT22;6927;51.256;9.410;2023-12-29T14:31:44;9.40;99.90
13711;DHT22;6927;51.256;9.410;2023-12-29T14:34:10;9.40;99.90
13711;DHT22;6927;51.256;9.410;2023-12-29T14:36:38;9.40;99.90
13711;DHT22;6927;51.256;9.410;2023-12-29T14:39:04;9.40;99.90
13711;DHT22;6927;51.256;9.410;2023-12-29T14:41:31;9.40;99.90
13711;DHT22;6927;51.256;9.410;2023-12-29T14:43:57;9.40;99.90
13711;DHT22;6927;51.256;9.410;2023-12-29T14:46:23;9.50;99.90
13711;DHT22;6927;51.256;9.410;2023-12-29T14:48:49;9.50;99.90
13711;DHT22;6927;51.256;9.410;2023-12-29T14:51:15;9.50;99.90
13711;DHT22;6927;51.256;9.410;2023-12-29T14:53:44;9.50;99.90
13711;DHT22;6927;51.256;9.410;2023-12-29T14:56:10;9.50;99.90
13711;DHT22;6927;51.256;9.410;2023-12-29T14:58:36;9.50;99.90
13711;DHT22;6927;51.256;9.410;2023-12-29T15:01:02;9.50;99.90
13711;DHT22;6927;51.256;9.410;2023-12-29T15:03:29;9.50;99.90
13711;DHT22;6927;51.256;9.410;2023-12-29T15:05:54;9.50;99.90
13711;DHT22;6927;51.256;9.410;2023-12-29T15:08:20;9.50;99.90
13711;DHT22;6927;51.256;9.410;2023-12-29T15:10:46;9.50;99.90
13711;DHT22;6927;51.256;9.410;2023-12-29T15:13:11;9.50;99.90
13711;DHT22;6927;51.256;9.410;2023-12-29T15:15:37;9.50;99.90
13711;DHT22;6927;51.256;9.410;2023-12-29T15:18:03;9.50;99.90
13711;DHT22;6927;51.256;9.410;2023-12-29T15:20:29;9.50;99.90
13711;DHT22;6927;51.256;9.410;2023-12-29T15:22:54;9.50;99.90
13711;DHT22;6927;51.256;9.410;2023-12-29T15:25:24;9.50;99.90
13711;DHT22;6927;51.256;9.410;2023-12-29T15:27:51;9.50;99.90
13711;DHT22;6927;51.256;9.410;2023-12-29T15:30:17;9.50;99.90
13711;DHT22;6927;51.256;9.410;2023-12-29T15:32:43;9.50;99.90
13711;DHT22;6927;51.256;9.410;2023-12-29T15:35:08;9.50;99.90
13711;DHT22;6927;51.256;9.410;2023-12-29T15:37:34;9.40;99.90
13711;DHT22;6927;51.256;9.410;2023-12-29T15:40:00;9.40;99.90
13711;DHT22;6927;51.256;9.410;2023-12-29T15:42:26;9.40;99.90
13711;DHT22;6927;51.256;9.410;2023-12-29T15:44:52;9.40;99.90
13711;DHT22;6927;51.256;9.410;2023-12-29T15:47:19;9.40;99.90
13711;DHT22;6927;51.256;9.410;2023-12-29T15:49:44;9.40;99.90
13711;DHT22;6927;51.256;9.410;2023-12-29T15:52:10;9.40;99.90
13711;DHT22;6927;51.256;9.410;2023-12-29T15:54:35;9.30;99.90
13711;DHT22;6927;51.256;9.410;2023-12-29T15:57:01;9.30;99.90
13711;DHT22;6927;51.256;9.410;2023-12-29T15:59:32;9.30;99.90
13711;DHT22;6927;51.256;9.410;2023-12-29T16:01:58;9.30;99.90
13711;DHT22;6927;51.256;9.410;2023-12-29T16:04:23;9.20;99.90
13711;DHT22;6927;51.256;9.410;2023-12-29T16:06:49;9.20;99.90
13711;DHT22;6927;51.256;9.410;2023-12-29T16:09:15;9.20;99.90
13711;DHT22;6927;51.256;9.410;2023-12-29T16:11:40;9.20;99.90
13711;DHT22;6927;51.256;9.410;2023-12-29T16:14:06;9.10;99.90
13711;DHT22;6927;51.256;9.410;2023-12-29T16:16:31;9.10;99.90
13711;DHT22;6927;51.256;9.410;2023-12-29T16:18:57;9.00;99.90
13711;DHT22;6927;51.256;9.410;2023-12-29T16:21:23;9.10;99.90
13711;DHT22;6927;51.256;9.410;2023-12-29T16:23:49;9.00;99.90
13711;DHT22;6927;51.256;9.410;2023-12-29T16:26:15;9.00;99.90
13711;DHT22;6927;51.256;9.410;2023-12-29T16:28:40;9.00;99.90
13711;DHT22;6927;51.256;9.410;2023-12-29T16:31:07;9.00;99.90
13711;DHT22;6927;51.256;9.410;2023-12-29T16:33:35;9.00;99.90
13711;DHT22;6927;51.256;9.410;2023-12-29T16:36:12;9.00;99.90
13711;DHT22;6927;51.256;9.410;2023-12-29T16:38:48;8.90;99.90
13711;DHT22;6927;51.256;9.410;2023-12-29T16:41:15;8.90;99.90
13711;DHT22;6927;51.256;9.410;2023-12-29T16:43:41;8.80;99.90